createdAt,value
2017-07-09T00:00:08.313Z,87.35
2017-07-09T00:00:36.427Z,87.35
2017-07-09T00:01:04.542Z,87.35
2017-07-09T00:01:32.628Z,87.39
2017-07-09T00:02:00.552Z,87.15
2017-07-09T00:02:28.497Z,87.54
2017-07-09T00:02:56.502Z,87.54
2017-07-09T00:03:24.506Z,87.54
2017-07-09T00:03:52.623Z,87.25
2017-07-09T00:04:20.723Z,87.63
2017-07-09T00:04:48.616Z,87.44
2017-07-09T00:05:16.746Z,87.44
2017-07-09T00:05:44.759Z,87.25
2017-07-09T00:06:12.786Z,87.44
2017-07-09T00:06:40.697Z,87.35
2017-07-09T00:07:08.607Z,87.44
2017-07-09T00:07:36.442Z,87.44
2017-07-09T00:08:04.546Z,87.63
2017-07-09T00:08:32.545Z,87.92
2017-07-09T00:09:00.663Z,87.44
2017-07-09T00:09:28.503Z,87.54
2017-07-09T00:09:56.411Z,87.35
2017-07-09T00:10:24.421Z,87.44
2017-07-09T00:10:52.446Z,87.63
2017-07-09T00:11:20.566Z,88.21
2017-07-09T00:11:48.496Z,88.21
2017-07-09T00:12:16.652Z,87.44
2017-07-09T00:12:44.720Z,87.44
2017-07-09T00:13:12.737Z,87.44
2017-07-09T00:13:40.654Z,87.44
2017-07-09T00:14:08.492Z,87.63
2017-07-09T00:14:36.589Z,87.54
2017-07-09T00:15:04.616Z,87.82
2017-07-09T00:15:32.739Z,87.63
2017-07-09T00:16:00.840Z,87.44
2017-07-09T00:16:28.734Z,87.25
2017-07-09T00:16:56.870Z,87.44
2017-07-09T00:17:24.885Z,87.63
2017-07-09T00:17:53.005Z,87.73
2017-07-09T00:18:21.031Z,88.49
2017-07-09T00:18:48.942Z,88.02
2017-07-09T00:19:17.062Z,88.11
2017-07-09T00:19:45.189Z,87.92
2017-07-09T00:20:13.238Z,87.73
2017-07-09T00:20:41.153Z,88.02
2017-07-09T00:21:09.072Z,88.11
2017-07-09T00:21:37.206Z,88.4
2017-07-09T00:22:05.133Z,88.31
2017-07-09T00:22:33.040Z,88.88
2017-07-09T00:23:01.121Z,88.31
2017-07-09T00:23:29.032Z,88.31
2017-07-09T00:23:56.857Z,88.49
2017-07-09T00:24:24.697Z,88.69
2017-07-09T00:24:52.818Z,88.98
2017-07-09T00:25:20.949Z,88.49
2017-07-09T00:25:48.967Z,88.79
2017-07-09T00:26:16.892Z,88.49
2017-07-09T00:26:44.830Z,88.79
2017-07-09T00:27:12.652Z,88.88
2017-07-09T00:27:40.580Z,88.59
2017-07-09T00:28:08.697Z,88.69
2017-07-09T00:28:36.820Z,88.59
2017-07-09T00:29:04.848Z,88.49
2017-07-09T00:29:33.031Z,88.49
2017-07-09T00:30:00.938Z,88.49
2017-07-09T00:30:29.062Z,88.69
2017-07-09T00:30:56.967Z,88.49
2017-07-09T00:31:24.882Z,88.4
2017-07-09T00:31:52.695Z,88.49
2017-07-09T00:32:20.738Z,88.59
2017-07-09T00:32:48.845Z,88.49
2017-07-09T00:33:16.887Z,88.88
2017-07-09T00:33:44.895Z,88.88
2017-07-09T00:34:12.687Z,89.26
2017-07-09T00:34:40.699Z,89.26
2017-07-09T00:35:08.821Z,89.26
2017-07-09T00:35:36.723Z,88.98
2017-07-09T00:36:04.639Z,89.07
2017-07-09T00:36:32.652Z,88.98
2017-07-09T00:37:01.270Z,89.17
2017-07-09T00:37:29.296Z,89.55
2017-07-09T00:37:57.422Z,89.55
2017-07-09T00:38:25.451Z,89.26
2017-07-09T00:38:53.368Z,89.36
2017-07-09T00:39:21.517Z,89.55
2017-07-09T00:39:49.621Z,89.55
2017-07-09T00:40:17.444Z,89.36
2017-07-09T00:40:45.569Z,89.36
2017-07-09T00:41:13.687Z,88.98
2017-07-09T00:41:41.688Z,89.36
2017-07-09T00:42:09.722Z,89.07
2017-07-09T00:42:37.754Z,89.36
2017-07-09T00:43:05.929Z,89.41
2017-07-09T00:43:34.056Z,89.46
2017-07-09T00:44:02.191Z,89.61
2017-07-09T00:44:30.327Z,89.61
2017-07-09T00:44:58.442Z,89.79
2017-07-09T00:45:26.558Z,89.7
2017-07-09T00:45:54.572Z,89.84
2017-07-09T00:46:22.587Z,89.51
2017-07-09T00:46:50.611Z,89.79
2017-07-09T00:47:18.561Z,90.18
2017-07-09T00:47:46.456Z,90.37
2017-07-09T00:48:14.562Z,90.37
2017-07-09T00:48:42.601Z,90.37
2017-07-09T00:49:10.604Z,90.28
2017-07-09T00:49:38.645Z,90.08
2017-07-09T00:50:06.794Z,90.56
2017-07-09T00:50:34.895Z,90.47
2017-07-09T00:51:02.926Z,90.95
2017-07-09T00:51:30.951Z,90.75
2017-07-09T00:51:59.001Z,90.75
2017-07-09T00:52:27.142Z,90.95
2017-07-09T00:52:55.184Z,91.33
2017-07-09T00:53:23.260Z,91.14
2017-07-09T00:53:51.250Z,91.14
2017-07-09T00:54:19.366Z,90.66
2017-07-09T00:54:47.390Z,91.05
2017-07-09T00:55:15.495Z,90.85
2017-07-09T00:55:43.519Z,91.05
2017-07-09T00:56:11.540Z,91.42
2017-07-09T00:56:39.556Z,91.05
2017-07-09T00:57:07.488Z,91.42
2017-07-09T00:57:35.628Z,91.14
2017-07-09T00:58:03.644Z,90.95
2017-07-09T00:58:31.766Z,91.42
2017-07-09T00:58:59.766Z,91.42
2017-07-09T00:59:27.854Z,91.42
2017-07-09T00:59:55.648Z,91.42
2017-07-09T01:00:23.565Z,91.91
2017-07-09T01:00:51.482Z,91.72
2017-07-09T01:01:19.517Z,91.42
2017-07-09T01:01:47.541Z,91.62
2017-07-09T01:02:15.664Z,91.72
2017-07-09T01:02:43.799Z,91.62
2017-07-09T01:03:11.806Z,92.1
2017-07-09T01:03:39.821Z,92.29
2017-07-09T01:04:07.939Z,92.19
2017-07-09T01:04:36.065Z,92.19
2017-07-09T01:05:04.117Z,92.19
2017-07-09T01:05:32.265Z,92
2017-07-09T01:06:00.401Z,92.1
2017-07-09T01:06:28.508Z,92.29
2017-07-09T01:06:56.623Z,92.19
2017-07-09T01:07:24.729Z,92.1
2017-07-09T01:07:52.843Z,91.91
2017-07-09T01:08:20.962Z,92.1
2017-07-09T01:08:48.880Z,91.91
2017-07-09T01:09:17.004Z,91.91
2017-07-09T01:09:45.104Z,92.1
2017-07-09T01:10:13.125Z,92.19
2017-07-09T01:10:41.142Z,91.72
2017-07-09T01:11:09.251Z,91.72
2017-07-09T01:11:37.372Z,92.1
2017-07-09T01:12:05.559Z,92.19
2017-07-09T01:12:33.667Z,92.1
2017-07-09T01:13:01.776Z,92.29
2017-07-09T01:13:29.815Z,91.52
2017-07-09T01:13:57.809Z,91.42
2017-07-09T01:14:25.916Z,91.42
2017-07-09T01:14:54.048Z,91.33
2017-07-09T01:15:21.968Z,91.24
2017-07-09T01:15:49.990Z,91.33
2017-07-09T01:16:18.007Z,91.14
2017-07-09T01:16:46.052Z,91.05
2017-07-09T01:17:14.190Z,91.14
2017-07-09T01:17:42.204Z,91.52
2017-07-09T01:18:10.227Z,91.33
2017-07-09T01:18:38.262Z,90.95
2017-07-09T01:19:06.076Z,91.42
2017-07-09T01:19:34.173Z,91.42
2017-07-09T01:20:02.310Z,91.42
2017-07-09T01:20:30.430Z,91.52
2017-07-09T01:20:58.440Z,91.72
2017-07-09T01:21:26.431Z,91.62
2017-07-09T01:21:54.551Z,91.72
2017-07-09T01:22:22.461Z,92
2017-07-09T01:22:50.598Z,91.91
2017-07-09T01:23:18.506Z,92.19
2017-07-09T01:23:46.296Z,91.91
2017-07-09T01:24:14.309Z,92.1
2017-07-09T01:24:42.240Z,91.81
2017-07-09T01:25:10.342Z,92.58
2017-07-09T01:25:38.440Z,92.48
2017-07-09T01:26:06.439Z,92.68
2017-07-09T01:26:34.453Z,92.68
2017-07-09T01:27:02.472Z,92.58
2017-07-09T01:27:30.571Z,92.39
2017-07-09T01:27:58.675Z,92.77
2017-07-09T01:28:26.695Z,92.58
2017-07-09T01:28:54.612Z,92.77
2017-07-09T01:29:22.543Z,92.58
2017-07-09T01:29:50.578Z,92.68
2017-07-09T01:30:18.484Z,92.39
2017-07-09T01:30:46.526Z,92.39
2017-07-09T01:31:14.458Z,92.48
2017-07-09T01:31:42.262Z,92.1
2017-07-09T01:32:10.383Z,92.19
2017-07-09T01:32:38.517Z,92.29
2017-07-09T01:33:06.532Z,92.48
2017-07-09T01:33:34.575Z,92.39
2017-07-09T01:34:02.575Z,92.58
2017-07-09T01:34:30.508Z,92.1
2017-07-09T01:34:58.412Z,92.39
2017-07-09T01:35:26.492Z,92.39
2017-07-09T01:35:54.409Z,92.48
2017-07-09T01:36:22.342Z,92.58
2017-07-09T01:36:50.367Z,92.39
2017-07-09T01:37:18.064Z,92.39
2017-07-09T01:37:46.193Z,92.48
2017-07-09T01:38:14.314Z,92.58
2017-07-09T01:38:42.416Z,92.48
2017-07-09T01:39:10.536Z,92.29
2017-07-09T01:39:38.561Z,92.1
2017-07-09T01:40:06.559Z,92.29
2017-07-09T01:40:34.494Z,92.29
2017-07-09T01:41:02.610Z,92.29
2017-07-09T01:41:30.515Z,92.1
2017-07-09T01:41:58.529Z,92.48
2017-07-09T01:42:26.569Z,92.39
2017-07-09T01:42:54.496Z,92.58
2017-07-09T01:43:22.401Z,92.44
2017-07-09T01:43:50.432Z,92.44
2017-07-09T01:44:18.354Z,92.15
2017-07-09T01:44:46.474Z,92.34
2017-07-09T01:45:14.489Z,92.34
2017-07-09T01:45:42.523Z,92.34
2017-07-09T01:46:10.525Z,93.21
2017-07-09T01:46:38.524Z,93.11
2017-07-09T01:47:06.342Z,92.34
2017-07-09T01:47:34.382Z,92.24
2017-07-09T01:48:02.506Z,92.34
2017-07-09T01:48:30.646Z,92.54
2017-07-09T01:48:58.774Z,91.77
2017-07-09T01:49:26.785Z,92
2017-07-09T01:49:54.809Z,91.81
2017-07-09T01:50:22.717Z,92.19
2017-07-09T01:50:50.640Z,92
2017-07-09T01:51:18.774Z,92.19
2017-07-09T01:51:46.896Z,92.1
2017-07-09T01:52:14.785Z,92
2017-07-09T01:52:42.899Z,91.42
2017-07-09T01:53:11.028Z,91.52
2017-07-09T01:53:39.137Z,91.81
2017-07-09T01:54:07.155Z,92.29
2017-07-09T01:54:35.162Z,91.91
2017-07-09T01:55:03.295Z,91.72
2017-07-09T01:55:31.134Z,92.05
2017-07-09T01:55:59.259Z,92.63
2017-07-09T01:56:27.268Z,92.15
2017-07-09T01:56:55.376Z,92.63
2017-07-09T01:57:23.482Z,92.72
2017-07-09T01:57:51.635Z,93.11
2017-07-09T01:58:19.630Z,93.11
2017-07-09T01:58:47.722Z,93.11
2017-07-09T01:59:15.878Z,92.82
2017-07-09T01:59:43.823Z,92.63
2017-07-09T02:00:11.766Z,92.54
2017-07-09T02:00:39.892Z,92.44
2017-07-09T02:01:07.815Z,92.44
2017-07-09T02:01:35.957Z,92.54
2017-07-09T02:02:04.095Z,92.15
2017-07-09T02:02:31.998Z,92.44
2017-07-09T02:03:00.152Z,92.72
2017-07-09T02:03:27.879Z,92.91
2017-07-09T02:03:56.002Z,92.82
2017-07-09T02:04:24.098Z,93.11
2017-07-09T02:04:52.227Z,92.82
2017-07-09T02:05:20.036Z,93.68
2017-07-09T02:05:48.142Z,93.21
2017-07-09T02:06:16.167Z,93.49
2017-07-09T02:06:44.199Z,93.59
2017-07-09T02:07:12.197Z,93.97
2017-07-09T02:07:40.238Z,94.07
2017-07-09T02:08:08.291Z,93.73
2017-07-09T02:08:36.421Z,93.93
2017-07-09T02:09:04.434Z,93.88
2017-07-09T02:09:32.500Z,94.5
2017-07-09T02:10:00.527Z,94.5
2017-07-09T02:10:28.519Z,94.59
2017-07-09T02:10:56.613Z,94.5
2017-07-09T02:11:24.729Z,95.17
2017-07-09T02:11:52.818Z,94.98
2017-07-09T02:12:20.934Z,94.79
2017-07-09T02:12:48.978Z,94.89
2017-07-09T02:13:17.094Z,94.89
2017-07-09T02:13:45.012Z,95.46
2017-07-09T02:14:13.047Z,95.26
2017-07-09T02:14:41.159Z,95.65
2017-07-09T02:15:09.175Z,95.75
2017-07-09T02:15:37.081Z,95.26
2017-07-09T02:16:05.078Z,96.03
2017-07-09T02:16:33.064Z,95.84
2017-07-09T02:17:01.201Z,95.56
2017-07-09T02:17:29.333Z,95.65
2017-07-09T02:17:57.258Z,95.75
2017-07-09T02:18:25.371Z,95.75
2017-07-09T02:18:53.318Z,95.65
2017-07-09T02:19:21.342Z,96.22
2017-07-09T02:19:49.479Z,95.65
2017-07-09T02:20:17.590Z,96.51
2017-07-09T02:20:45.693Z,96.7
2017-07-09T02:21:13.827Z,96.42
2017-07-09T02:21:41.868Z,95.65
2017-07-09T02:22:09.705Z,95.84
2017-07-09T02:22:37.642Z,95.94
2017-07-09T02:23:05.568Z,96.61
2017-07-09T02:23:33.592Z,96.51
2017-07-09T02:24:01.419Z,96.32
2017-07-09T02:24:29.351Z,96.22
2017-07-09T02:24:57.404Z,96.03
2017-07-09T02:25:25.346Z,96.32
2017-07-09T02:25:53.468Z,96.22
2017-07-09T02:26:21.484Z,96.13
2017-07-09T02:26:49.492Z,96.22
2017-07-09T02:27:17.510Z,96.22
2017-07-09T02:27:45.530Z,96.51
2017-07-09T02:28:13.557Z,96.42
2017-07-09T02:28:41.505Z,96.42
2017-07-09T02:29:09.527Z,96.22
2017-07-09T02:29:37.566Z,96.03
2017-07-09T02:30:05.723Z,96.42
2017-07-09T02:30:33.782Z,96.32
2017-07-09T02:31:01.927Z,96.8
2017-07-09T02:31:30.015Z,95.84
2017-07-09T02:31:58.130Z,96.8
2017-07-09T02:32:26.072Z,96.32
2017-07-09T02:32:54.192Z,96.66
2017-07-09T02:33:22.081Z,96.7
2017-07-09T02:33:50.189Z,96.56
2017-07-09T02:34:17.910Z,96.37
2017-07-09T02:34:46.050Z,96.84
2017-07-09T02:35:13.894Z,97.14
2017-07-09T02:35:41.960Z,96.66
2017-07-09T02:36:09.870Z,96.84
2017-07-09T02:36:37.993Z,96.99
2017-07-09T02:37:06.000Z,97.04
2017-07-09T02:37:33.996Z,96.94
2017-07-09T02:38:01.819Z,96.84
2017-07-09T02:38:29.923Z,96.94
2017-07-09T02:38:58.075Z,97.14
2017-07-09T02:39:26.114Z,97.33
2017-07-09T02:39:54.048Z,97.71
2017-07-09T02:40:22.184Z,97.52
2017-07-09T02:40:50.298Z,97.33
2017-07-09T02:41:18.240Z,97.61
2017-07-09T02:41:46.185Z,97.61
2017-07-09T02:42:14.111Z,98
2017-07-09T02:42:42.106Z,98.67
2017-07-09T02:43:10.121Z,98.76
2017-07-09T02:43:38.135Z,98.67
2017-07-09T02:44:06.180Z,98.47
2017-07-09T02:44:34.278Z,98.67
2017-07-09T02:45:02.279Z,98.47
2017-07-09T02:45:30.420Z,98.28
2017-07-09T02:45:58.429Z,98.57
2017-07-09T02:46:26.541Z,98.47
2017-07-09T02:46:54.627Z,98.67
2017-07-09T02:47:23.352Z,98.28
2017-07-09T02:47:51.342Z,98.57
2017-07-09T02:48:19.289Z,98.47
2017-07-09T02:48:47.323Z,98.67
2017-07-09T02:49:15.392Z,98.28
2017-07-09T02:49:43.420Z,98.67
2017-07-09T02:50:11.546Z,98.86
2017-07-09T02:50:39.550Z,98.19
2017-07-09T02:51:07.476Z,98.67
2017-07-09T02:51:35.506Z,98.86
2017-07-09T02:52:03.622Z,98.67
2017-07-09T02:52:31.545Z,98.86
2017-07-09T02:52:59.580Z,98.67
2017-07-09T02:53:27.497Z,98.76
2017-07-09T02:53:55.498Z,98.47
2017-07-09T02:54:23.510Z,98.57
2017-07-09T02:54:51.641Z,98.57
2017-07-09T02:55:19.670Z,98.57
2017-07-09T02:55:47.690Z,98.57
2017-07-09T02:56:15.711Z,98.67
2017-07-09T02:56:43.628Z,98.86
2017-07-09T02:57:11.528Z,98.38
2017-07-09T02:57:39.682Z,98.19
2017-07-09T02:58:07.711Z,98.47
2017-07-09T02:58:35.723Z,98.67
2017-07-09T02:59:03.851Z,98.86
2017-07-09T02:59:31.784Z,98.57
2017-07-09T02:59:59.789Z,98.57
2017-07-09T03:00:27.806Z,99.43
2017-07-09T03:00:55.755Z,99.05
2017-07-09T03:01:23.582Z,98.91
2017-07-09T03:01:51.459Z,99.63
2017-07-09T03:02:19.565Z,99.53
2017-07-09T03:02:47.582Z,99.38
2017-07-09T03:03:15.711Z,99.05
2017-07-09T03:03:43.740Z,99.15
2017-07-09T03:04:11.731Z,98.86
2017-07-09T03:04:39.753Z,98.86
2017-07-09T03:05:07.657Z,98.81
2017-07-09T03:05:35.783Z,99
2017-07-09T03:06:03.801Z,99.15
2017-07-09T03:06:31.919Z,98.96
2017-07-09T03:06:59.929Z,99.15
2017-07-09T03:07:27.945Z,98.76
2017-07-09T03:07:56.072Z,98.76
2017-07-09T03:08:24.188Z,98.57
2017-07-09T03:08:52.274Z,98.47
2017-07-09T03:09:20.189Z,98.86
2017-07-09T03:09:48.219Z,98.76
2017-07-09T03:10:16.331Z,98.86
2017-07-09T03:10:44.354Z,98.96
2017-07-09T03:11:12.288Z,99.05
2017-07-09T03:11:40.431Z,98.86
2017-07-09T03:12:08.452Z,98.96
2017-07-09T03:12:36.492Z,98.76
2017-07-09T03:13:04.405Z,98.96
2017-07-09T03:13:32.408Z,98.19
2017-07-09T03:14:00.529Z,98.19
2017-07-09T03:14:28.448Z,98.38
2017-07-09T03:14:56.581Z,98.67
2017-07-09T03:15:24.574Z,98.38
2017-07-09T03:15:52.690Z,98.67
2017-07-09T03:16:20.721Z,98.57
2017-07-09T03:16:48.753Z,98.67
2017-07-09T03:17:16.895Z,98.67
2017-07-09T03:17:44.806Z,99.24
2017-07-09T03:18:12.724Z,99.15
2017-07-09T03:18:40.719Z,99.43
2017-07-09T03:19:08.737Z,99.29
2017-07-09T03:19:36.848Z,99
2017-07-09T03:20:04.880Z,99.19
2017-07-09T03:20:32.908Z,99.29
2017-07-09T03:21:01.018Z,99.29
2017-07-09T03:21:29.107Z,99.43
2017-07-09T03:21:57.226Z,99.29
2017-07-09T03:22:25.141Z,99.1
2017-07-09T03:22:53.233Z,99.29
2017-07-09T03:23:21.082Z,99.63
2017-07-09T03:23:49.022Z,99.38
2017-07-09T03:24:16.837Z,99.72
2017-07-09T03:24:44.851Z,99.19
2017-07-09T03:25:12.737Z,99.19
2017-07-09T03:25:40.753Z,99.58
2017-07-09T03:26:08.782Z,99.48
2017-07-09T03:26:36.804Z,99.99
2017-07-09T03:27:04.919Z,99.99
2017-07-09T03:27:32.948Z,99.99
2017-07-09T03:28:01.075Z,99.96
2017-07-09T03:28:29.199Z,99.96
2017-07-09T03:28:57.345Z,99.96
2017-07-09T03:29:25.475Z,99.77
2017-07-09T03:29:53.498Z,99.87
2017-07-09T03:30:21.407Z,99.99
2017-07-09T03:30:49.516Z,99.99
2017-07-09T03:31:17.654Z,99.99
2017-07-09T03:31:45.588Z,99.1
2017-07-09T03:32:13.619Z,99.38
2017-07-09T03:32:41.742Z,99.38
2017-07-09T03:33:09.767Z,99.87
2017-07-09T03:33:37.785Z,99.67
2017-07-09T03:34:05.887Z,99.29
2017-07-09T03:34:33.917Z,99.38
2017-07-09T03:35:01.837Z,99.99
2017-07-09T03:35:29.960Z,99.99
2017-07-09T03:35:58.094Z,99.99
2017-07-09T03:36:26.209Z,99.87
2017-07-09T03:36:54.209Z,99.58
2017-07-09T03:37:22.238Z,99.99
2017-07-09T03:37:50.351Z,99.58
2017-07-09T03:38:18.415Z,99.77
2017-07-09T03:38:46.342Z,99.77
2017-07-09T03:39:14.364Z,99.99
2017-07-09T03:39:42.507Z,99.87
2017-07-09T03:40:10.613Z,99.99
2017-07-09T03:40:38.312Z,99.77
2017-07-09T03:41:06.366Z,99.87
2017-07-09T03:41:34.416Z,99.87
2017-07-09T03:42:02.348Z,99.99
2017-07-09T03:42:30.258Z,99.99
2017-07-09T03:42:58.283Z,99.99
2017-07-09T03:43:26.318Z,99.99
2017-07-09T03:43:54.331Z,99.96
2017-07-09T03:44:22.341Z,99.99
2017-07-09T03:44:50.374Z,99.87
2017-07-09T03:45:18.403Z,99.96
2017-07-09T03:45:46.306Z,99.99
2017-07-09T03:46:14.330Z,99.96
2017-07-09T03:46:42.258Z,99.67
2017-07-09T03:47:10.357Z,99.99
2017-07-09T03:47:38.438Z,99.99
2017-07-09T03:48:06.480Z,99.99
2017-07-09T03:48:34.506Z,99.99
2017-07-09T03:49:02.454Z,99.99
2017-07-09T03:49:30.446Z,99.99
2017-07-09T03:49:58.565Z,99.99
2017-07-09T03:50:26.596Z,99.99
2017-07-09T03:50:54.489Z,99.96
2017-07-09T03:51:22.514Z,99.99
2017-07-09T03:51:50.516Z,99.99
2017-07-09T03:52:18.457Z,99.99
2017-07-09T03:52:46.601Z,99.99
2017-07-09T03:53:14.610Z,99.99
2017-07-09T03:53:42.619Z,99.99
2017-07-09T03:54:10.534Z,99.99
2017-07-09T03:54:38.547Z,99.99
2017-07-09T03:55:06.578Z,99.99
2017-07-09T03:55:34.660Z,99.99
2017-07-09T03:56:02.769Z,99.99
2017-07-09T03:56:30.888Z,99.99
2017-07-09T03:56:59.002Z,99.99
2017-07-09T03:57:27.117Z,99.99
2017-07-09T03:57:55.274Z,99.99
2017-07-09T03:58:23.302Z,99.99
2017-07-09T03:58:51.408Z,99.99
2017-07-09T03:59:19.542Z,99.99
2017-07-09T03:59:47.680Z,99.99
2017-07-09T04:00:15.726Z,99.99
2017-07-09T04:00:43.649Z,99.99
2017-07-09T04:01:11.703Z,99.99
2017-07-09T04:01:39.809Z,99.99
2017-07-09T04:02:07.843Z,99.99
2017-07-09T04:02:35.863Z,99.99
2017-07-09T04:03:03.862Z,99.99
2017-07-09T04:03:31.886Z,99.99
2017-07-09T04:04:00.003Z,99.99
2017-07-09T04:04:28.115Z,99.99
2017-07-09T04:04:56.243Z,99.99
2017-07-09T04:05:24.173Z,99.99
2017-07-09T04:05:52.058Z,99.96
2017-07-09T04:06:20.105Z,99.99
2017-07-09T04:06:48.234Z,99.99
2017-07-09T04:07:16.259Z,99.99
2017-07-09T04:07:44.390Z,99.99
2017-07-09T04:08:12.315Z,99.99
2017-07-09T04:08:40.370Z,99.99
2017-07-09T04:09:08.499Z,99.99
2017-07-09T04:09:36.532Z,99.99
2017-07-09T04:10:04.539Z,99.99
2017-07-09T04:10:32.653Z,99.99
2017-07-09T04:11:00.789Z,99.99
2017-07-09T04:11:28.926Z,99.99
2017-07-09T04:11:56.854Z,99.99
2017-07-09T04:12:24.992Z,99.99
2017-07-09T04:12:53.010Z,99.99
2017-07-09T04:13:21.119Z,99.99
2017-07-09T04:13:49.064Z,99.99
2017-07-09T04:14:17.187Z,99.99
2017-07-09T04:14:45.303Z,99.99
2017-07-09T04:15:13.433Z,99.99
2017-07-09T04:15:41.463Z,99.99
2017-07-09T04:16:09.488Z,99.99
2017-07-09T04:16:37.421Z,99.99
2017-07-09T04:17:05.577Z,99.99
2017-07-09T04:17:33.588Z,99.99
2017-07-09T04:18:01.537Z,99.99
2017-07-09T04:18:29.471Z,99.99
2017-07-09T04:18:57.586Z,99.99
2017-07-09T04:19:25.618Z,99.99
2017-07-09T04:19:53.648Z,99.99
2017-07-09T04:20:21.781Z,99.99
2017-07-09T04:20:49.798Z,99.99
2017-07-09T04:21:17.503Z,99.99
2017-07-09T04:21:45.487Z,99.67
2017-07-09T04:22:13.510Z,99.99
2017-07-09T04:22:41.136Z,99.99
2017-07-09T04:23:09.157Z,99.99
2017-07-09T04:23:37.080Z,99.99
2017-07-09T04:24:05.203Z,99.77
2017-07-09T04:24:33.332Z,99.99
2017-07-09T04:25:01.431Z,99.99
2017-07-09T04:25:29.534Z,99.87
2017-07-09T04:25:57.548Z,99.99
2017-07-09T04:26:25.495Z,99.99
2017-07-09T04:26:53.423Z,99.99
2017-07-09T04:27:21.547Z,99.67
2017-07-09T04:27:49.578Z,99.87
2017-07-09T04:28:17.678Z,99.77
2017-07-09T04:28:45.678Z,99.87
2017-07-09T04:29:13.811Z,99.99
2017-07-09T04:29:41.813Z,99.87
2017-07-09T04:30:09.829Z,99.99
2017-07-09T04:30:37.857Z,99.19
2017-07-09T04:31:06.015Z,99.38
2017-07-09T04:31:33.999Z,99.48
2017-07-09T04:32:02.136Z,99.29
2017-07-09T04:32:30.160Z,99
2017-07-09T04:32:58.257Z,99.19
2017-07-09T04:33:26.094Z,99.58
2017-07-09T04:33:54.230Z,99.48
2017-07-09T04:34:22.340Z,99.99
2017-07-09T04:34:50.244Z,99.99
2017-07-09T04:35:18.269Z,99.99
2017-07-09T04:35:46.389Z,99.99
2017-07-09T04:36:14.387Z,99.87
2017-07-09T04:36:42.500Z,99.99
2017-07-09T04:37:10.623Z,99.99
2017-07-09T04:37:38.634Z,99.87
2017-07-09T04:38:06.675Z,99.99
2017-07-09T04:38:34.733Z,99.99
2017-07-09T04:39:02.666Z,99.99
2017-07-09T04:39:30.696Z,99.99
2017-07-09T04:39:58.728Z,99.99
2017-07-09T04:40:26.730Z,99.99
2017-07-09T04:40:54.860Z,99.99
2017-07-09T04:41:22.978Z,99.99
2017-07-09T04:41:50.914Z,99.99
2017-07-09T04:42:18.940Z,99.99
2017-07-09T04:42:47.086Z,99.99
2017-07-09T04:43:15.025Z,99.99
2017-07-09T04:43:43.041Z,99.99
2017-07-09T04:44:11.150Z,99.99
2017-07-09T04:44:39.172Z,99.99
2017-07-09T04:45:07.293Z,99.99
2017-07-09T04:45:35.421Z,99.99
2017-07-09T04:46:03.334Z,99.99
2017-07-09T04:46:31.367Z,99.99
2017-07-09T04:46:59.474Z,99.99
2017-07-09T04:47:27.678Z,99.99
2017-07-09T04:47:55.610Z,99.99
2017-07-09T04:48:23.514Z,99.99
2017-07-09T04:48:51.625Z,99.99
2017-07-09T04:49:19.658Z,99.99
2017-07-09T04:49:47.582Z,99.99
2017-07-09T04:50:15.512Z,99.99
2017-07-09T04:50:43.430Z,99.99
2017-07-09T04:51:11.562Z,99.99
2017-07-09T04:51:39.560Z,99.99
2017-07-09T04:52:07.573Z,99.99
2017-07-09T04:52:35.562Z,99.99
2017-07-09T04:53:03.690Z,99.99
2017-07-09T04:53:31.712Z,99.99
2017-07-09T04:53:59.822Z,99.99
2017-07-09T04:54:27.935Z,99.99
2017-07-09T04:54:55.934Z,99.99
2017-07-09T04:55:23.961Z,99.99
2017-07-09T04:55:52.063Z,99.99
2017-07-09T04:56:20.154Z,99.99
2017-07-09T04:56:48.174Z,99.99
2017-07-09T04:57:16.253Z,99.99
2017-07-09T04:57:44.174Z,99.99
2017-07-09T04:58:12.099Z,99.99
2017-07-09T04:58:40.128Z,99.99
2017-07-09T04:59:08.131Z,99.99
2017-07-09T04:59:36.264Z,99.99
2017-07-09T05:00:04.379Z,99.99
2017-07-09T05:00:32.386Z,99.99
2017-07-09T05:01:00.401Z,99.99
2017-07-09T05:01:28.531Z,99.99
2017-07-09T05:01:56.577Z,99.99
2017-07-09T05:02:24.604Z,99.99
2017-07-09T05:02:52.624Z,99.99
2017-07-09T05:03:20.650Z,99.99
2017-07-09T05:03:48.836Z,99.99
2017-07-09T05:04:16.939Z,99.99
2017-07-09T05:04:45.060Z,99.99
2017-07-09T05:05:12.967Z,99.99
2017-07-09T05:05:40.993Z,99.99
2017-07-09T05:06:09.030Z,99.99
2017-07-09T05:06:37.126Z,99.99
2017-07-09T05:07:05.228Z,99.99
2017-07-09T05:07:33.338Z,99.99
2017-07-09T05:08:01.347Z,99.99
2017-07-09T05:08:29.372Z,99.99
2017-07-09T05:08:57.475Z,99.99
2017-07-09T05:09:25.589Z,99.99
2017-07-09T05:09:53.681Z,99.99
2017-07-09T05:10:21.679Z,99.99
2017-07-09T05:10:49.658Z,99.99
2017-07-09T05:11:17.687Z,99.99
2017-07-09T05:11:45.688Z,99.99
2017-07-09T05:12:13.597Z,99.99
2017-07-09T05:12:41.705Z,99.99
2017-07-09T05:13:09.716Z,99.99
2017-07-09T05:13:37.717Z,99.99
2017-07-09T05:14:05.719Z,99.99
2017-07-09T05:14:33.862Z,99.99
2017-07-09T05:15:02.017Z,99.99
2017-07-09T05:15:30.037Z,99.99
2017-07-09T05:15:58.035Z,99.99
2017-07-09T05:16:26.099Z,99.99
2017-07-09T05:16:54.133Z,99.99
2017-07-09T05:17:22.226Z,99.99
2017-07-09T05:17:50.064Z,99.99
2017-07-09T05:18:18.190Z,99.99
2017-07-09T05:18:46.218Z,99.99
2017-07-09T05:19:14.018Z,99.99
2017-07-09T05:19:41.969Z,99.99
2017-07-09T05:20:10.086Z,99.99
2017-07-09T05:20:38.154Z,99.99
2017-07-09T05:21:06.062Z,99.99
2017-07-09T05:21:34.111Z,99.99
2017-07-09T05:22:02.232Z,99.99
2017-07-09T05:22:30.030Z,99.99
2017-07-09T05:22:58.056Z,99.99
2017-07-09T05:23:25.980Z,99.99
2017-07-09T05:23:53.904Z,99.99
2017-07-09T05:24:21.812Z,99.99
2017-07-09T05:24:49.744Z,99.99
2017-07-09T05:25:17.760Z,99.99
2017-07-09T05:25:45.672Z,99.99
2017-07-09T05:26:13.670Z,99.99
2017-07-09T05:26:41.777Z,99.99
2017-07-09T05:27:09.821Z,99.99
2017-07-09T05:27:37.935Z,99.99
2017-07-09T05:28:05.865Z,99.99
2017-07-09T05:28:33.966Z,99.99
2017-07-09T05:29:01.902Z,99.99
2017-07-09T05:29:30.018Z,99.99
2017-07-09T05:29:57.870Z,99.99
2017-07-09T05:30:25.902Z,99.99
2017-07-09T05:30:54.033Z,99.99
2017-07-09T05:31:22.053Z,99.99
2017-07-09T05:31:50.179Z,99.99
2017-07-09T05:32:17.994Z,99.99
2017-07-09T05:32:45.935Z,99.99
2017-07-09T05:33:13.829Z,99.99
2017-07-09T05:33:41.930Z,99.99
2017-07-09T05:34:09.875Z,99.99
2017-07-09T05:34:37.989Z,99.99
2017-07-09T05:35:05.887Z,99.99
2017-07-09T05:35:34.009Z,99.99
2017-07-09T05:36:02.119Z,99.99
2017-07-09T05:36:30.264Z,99.99
2017-07-09T05:36:58.316Z,99.99
2017-07-09T05:37:26.339Z,99.99
2017-07-09T05:37:54.264Z,99.99
2017-07-09T05:38:22.301Z,99.99
2017-07-09T05:38:50.452Z,99.99
2017-07-09T05:39:18.346Z,99.99
2017-07-09T05:39:46.474Z,99.99
2017-07-09T05:40:14.486Z,99.99
2017-07-09T05:40:42.610Z,99.99
2017-07-09T05:41:10.723Z,99.99
2017-07-09T05:41:38.640Z,99.99
2017-07-09T05:42:06.559Z,99.99
2017-07-09T05:42:34.478Z,99.99
2017-07-09T05:43:02.578Z,99.99
2017-07-09T05:43:30.715Z,99.99
2017-07-09T05:43:58.848Z,99.99
2017-07-09T05:44:26.887Z,99.99
2017-07-09T05:44:55.034Z,99.99
2017-07-09T05:45:23.052Z,99.99
2017-07-09T05:45:51.183Z,99.99
2017-07-09T05:46:19.285Z,99.99
2017-07-09T05:46:47.397Z,99.99
2017-07-09T05:47:15.217Z,99.99
2017-07-09T05:47:43.219Z,99.99
2017-07-09T05:48:11.225Z,99.99
2017-07-09T05:48:39.250Z,99.99
2017-07-09T05:49:07.308Z,99.99
2017-07-09T05:49:35.436Z,99.99
2017-07-09T05:50:03.567Z,99.99
2017-07-09T05:50:31.496Z,99.99
2017-07-09T05:50:59.598Z,99.99
2017-07-09T05:51:27.706Z,99.99
2017-07-09T05:51:55.726Z,99.99
2017-07-09T05:52:23.855Z,99.99
2017-07-09T05:52:51.882Z,99.99
2017-07-09T05:53:19.708Z,99.99
2017-07-09T05:53:47.626Z,99.99
2017-07-09T05:54:15.653Z,99.99
2017-07-09T05:54:43.792Z,99.99
2017-07-09T05:55:11.964Z,99.99
2017-07-09T05:55:39.886Z,99.99
2017-07-09T05:56:07.898Z,99.99
2017-07-09T05:56:36.018Z,99.99
2017-07-09T05:57:04.142Z,99.99
2017-07-09T05:57:32.141Z,99.99
2017-07-09T05:58:00.139Z,99.99
2017-07-09T05:58:28.254Z,99.99
2017-07-09T05:58:56.390Z,99.99
2017-07-09T05:59:24.410Z,99.99
2017-07-09T05:59:52.404Z,99.99
2017-07-09T06:00:20.426Z,99.99
2017-07-09T06:00:48.462Z,99.99
2017-07-09T06:01:16.489Z,99.99
2017-07-09T06:01:44.505Z,99.99